sensor_id;sensor_type;location;lat;lon;timestamp;P1;durP1;ratioP1;P2;durP2;ratioP2
47603;SDS011;33326;51.116;6.900;2022-09-28T00:01:48;3.50;;;1.80;;
47603;SDS011;33326;51.116;6.900;2022-09-28T00:06:50;3.20;;;1.90;;
47603;SDS011;33326;51.116;6.900;2022-09-28T00:11:52;5.20;;;2.58;;
47603;SDS011;33326;51.116;6.900;2022-09-28T00:16:57;5.82;;;2.00;;
47603;SDS011;33326;51.116;6.900;2022-09-28T00:21:59;3.13;;;1.67;;
47603;SDS011;33326;51.116;6.900;2022-09-28T00:27:01;2.65;;;1.95;;
47603;SDS011;33326;51.116;6.900;2022-09-28T00:32:05;4.32;;;2.00;;
47603;SDS011;33326;51.116;6.900;2022-09-28T00:37:09;6.70;;;2.25;;
47603;SDS011;33326;51.116;6.900;2022-09-28T00:42:13;2.67;;;2.03;;
47603;SDS011;33326;51.116;6.900;2022-09-28T00:47:20;3.40;;;2.28;;
47603;SDS011;33326;51.116;6.900;2022-09-28T00:52:31;3.55;;;2.25;;
47603;SDS011;33326;51.116;6.900;2022-09-28T00:57:36;4.80;;;2.50;;
47603;SDS011;33326;51.116;6.900;2022-09-28T01:02:42;4.90;;;2.75;;
47603;SDS011;33326;51.116;6.900;2022-09-28T01:07:45;5.75;;;2.80;;
47603;SDS011;33326;51.116;6.900;2022-09-28T01:25:38;6.28;;;3.25;;
47603;SDS011;33326;51.116;6.900;2022-09-28T01:30:44;5.32;;;3.38;;
47603;SDS011;33326;51.116;6.900;2022-09-28T01:35:52;3.72;;;2.60;;
47603;SDS011;33326;51.116;6.900;2022-09-28T01:40:59;3.63;;;3.15;;
47603;SDS011;33326;51.116;6.900;2022-09-28T01:46:05;5.18;;;3.47;;
47603;SDS011;33326;51.116;6.900;2022-09-28T01:51:13;4.10;;;3.05;;
47603;SDS011;33326;51.116;6.900;2022-09-28T01:56:20;5.78;;;3.10;;
47603;SDS011;33326;51.116;6.900;2022-09-28T02:01:28;5.15;;;3.28;;
47603;SDS011;33326;51.116;6.900;2022-09-28T02:06:36;6.43;;;3.97;;
47603;SDS011;33326;51.116;6.900;2022-09-28T02:11:42;6.78;;;3.60;;
47603;SDS011;33326;51.116;6.900;2022-09-28T02:16:50;6.22;;;3.80;;
47603;SDS011;33326;51.116;6.900;2022-09-28T02:27:04;9.30;;;4.30;;
47603;SDS011;33326;51.116;6.900;2022-09-28T02:32:12;8.43;;;4.57;;
47603;SDS011;33326;51.116;6.900;2022-09-28T02:37:16;9.20;;;4.63;;
47603;SDS011;33326;51.116;6.900;2022-09-28T02:42:19;6.40;;;4.50;;
47603;SDS011;33326;51.116;6.900;2022-09-28T02:47:29;7.10;;;4.70;;
47603;SDS011;33326;51.116;6.900;2022-09-28T02:53:03;9.43;;;5.80;;
47603;SDS011;33326;51.116;6.900;2022-09-28T02:58:26;10.80;;;5.80;;
47603;SDS011;33326;51.116;6.900;2022-09-28T03:03:38;10.10;;;5.88;;
47603;SDS011;33326;51.116;6.900;2022-09-28T03:08:47;10.80;;;6.70;;
47603;SDS011;33326;51.116;6.900;2022-09-28T03:13:55;13.73;;;8.55;;
47603;SDS011;33326;51.116;6.900;2022-09-28T03:19:08;14.13;;;10.35;;
47603;SDS011;33326;51.116;6.900;2022-09-28T03:24:11;14.30;;;10.25;;
47603;SDS011;33326;51.116;6.900;2022-09-28T03:29:13;15.68;;;10.57;;
47603;SDS011;33326;51.116;6.900;2022-09-28T03:34:19;18.23;;;10.73;;
47603;SDS011;33326;51.116;6.900;2022-09-28T03:39:21;19.00;;;11.85;;
47603;SDS011;33326;51.116;6.900;2022-09-28T03:44:23;20.70;;;12.23;;
47603;SDS011;33326;51.116;6.900;2022-09-28T03:49:27;14.85;;;11.57;;
47603;SDS011;33326;51.116;6.900;2022-09-28T03:54:28;15.77;;;12.05;;
47603;SDS011;33326;51.116;6.900;2022-09-28T03:59:30;14.63;;;11.60;;
47603;SDS011;33326;51.116;6.900;2022-09-28T04:04:37;15.65;;;12.95;;
47603;SDS011;33326;51.116;6.900;2022-09-28T04:09:39;19.60;;;13.30;;
47603;SDS011;33326;51.116;6.900;2022-09-28T04:14:41;17.20;;;13.52;;
47603;SDS011;33326;51.116;6.900;2022-09-28T04:19:44;18.20;;;13.57;;
47603;SDS011;33326;51.116;6.900;2022-09-28T04:24:55;18.77;;;13.95;;
47603;SDS011;33326;51.116;6.900;2022-09-28T04:29:57;19.88;;;14.27;;
47603;SDS011;33326;51.116;6.900;2022-09-28T04:35:00;23.67;;;14.95;;
47603;SDS011;33326;51.116;6.900;2022-09-28T04:40:02;24.10;;;16.90;;
47603;SDS011;33326;51.116;6.900;2022-09-28T04:45:06;24.17;;;17.13;;
47603;SDS011;33326;51.116;6.900;2022-09-28T04:50:14;22.75;;;16.80;;
47603;SDS011;33326;51.116;6.900;2022-09-28T04:55:34;27.38;;;17.08;;
47603;SDS011;33326;51.116;6.900;2022-09-28T05:00:36;26.38;;;17.63;;
47603;SDS011;33326;51.116;6.900;2022-09-28T05:06:00;20.30;;;16.50;;
47603;SDS011;33326;51.116;6.900;2022-09-28T05:11:15;26.48;;;17.85;;
47603;SDS011;33326;51.116;6.900;2022-09-28T05:16:19;21.83;;;16.15;;
47603;SDS011;33326;51.116;6.900;2022-09-28T05:21:45;24.60;;;16.70;;
47603;SDS011;33326;51.116;6.900;2022-09-28T05:26:48;20.73;;;16.10;;
47603;SDS011;33326;51.116;6.900;2022-09-28T05:31:50;20.50;;;15.57;;
47603;SDS011;33326;51.116;6.900;2022-09-28T05:37:09;20.88;;;14.00;;
47603;SDS011;33326;51.116;6.900;2022-09-28T05:42:10;19.15;;;13.82;;
47603;SDS011;33326;51.116;6.900;2022-09-28T05:47:12;19.77;;;14.07;;
47603;SDS011;33326;51.116;6.900;2022-09-28T05:52:16;17.90;;;14.05;;
47603;SDS011;33326;51.116;6.900;2022-09-28T05:57:18;17.48;;;12.60;;
47603;SDS011;33326;51.116;6.900;2022-09-28T06:02:21;17.70;;;12.68;;
47603;SDS011;33326;51.116;6.900;2022-09-28T06:07:25;16.25;;;12.45;;
47603;SDS011;33326;51.116;6.900;2022-09-28T06:12:27;16.10;;;11.48;;
47603;SDS011;33326;51.116;6.900;2022-09-28T06:17:35;14.90;;;11.13;;
47603;SDS011;33326;51.116;6.900;2022-09-28T06:22:57;15.20;;;10.93;;
47603;SDS011;33326;51.116;6.900;2022-09-28T06:28:00;13.18;;;9.13;;
47603;SDS011;33326;51.116;6.900;2022-09-28T06:33:04;13.43;;;9.43;;
47603;SDS011;33326;51.116;6.900;2022-09-28T06:38:09;13.20;;;9.10;;
47603;SDS011;33326;51.116;6.900;2022-09-28T06:43:12;12.55;;;8.48;;
47603;SDS011;33326;51.116;6.900;2022-09-28T06:48:33;14.32;;;7.75;;
47603;SDS011;33326;51.116;6.900;2022-09-28T06:53:37;14.70;;;8.48;;
47603;SDS011;33326;51.116;6.900;2022-09-28T06:58:43;12.40;;;8.30;;
47603;SDS011;33326;51.116;6.900;2022-09-28T07:03:45;10.82;;;7.20;;
47603;SDS011;33326;51.116;6.900;2022-09-28T07:08:56;16.98;;;7.57;;
47603;SDS011;33326;51.116;6.900;2022-09-28T07:14:11;12.10;;;7.20;;
47603;SDS011;33326;51.116;6.900;2022-09-28T07:24:39;9.82;;;7.72;;
47603;SDS011;33326;51.116;6.900;2022-09-28T07:30:01;11.55;;;7.47;;
47603;SDS011;33326;51.116;6.900;2022-09-28T07:35:26;11.70;;;7.45;;
47603;SDS011;33326;51.116;6.900;2022-09-28T07:40:31;11.38;;;6.50;;
47603;SDS011;33326;51.116;6.900;2022-09-28T07:45:53;8.68;;;6.28;;
47603;SDS011;33326;51.116;6.900;2022-09-28T07:50:55;9.77;;;5.65;;
47603;SDS011;33326;51.116;6.900;2022-09-28T07:56:09;9.55;;;5.93;;
47603;SDS011;33326;51.116;6.900;2022-09-28T08:01:25;10.63;;;5.95;;
47603;SDS011;33326;51.116;6.900;2022-09-28T08:06:29;7.85;;;5.32;;
47603;SDS011;33326;51.116;6.900;2022-09-28T08:11:33;9.93;;;5.30;;
47603;SDS011;33326;51.116;6.900;2022-09-28T08:16:53;8.85;;;5.00;;
47603;SDS011;33326;51.116;6.900;2022-09-28T08:22:06;8.20;;;5.03;;
47603;SDS011;33326;51.116;6.900;2022-09-28T08:27:10;8.98;;;4.75;;
47603;SDS011;33326;51.116;6.900;2022-09-28T08:32:13;7.50;;;4.57;;
47603;SDS011;33326;51.116;6.900;2022-09-28T08:37:48;9.02;;;5.10;;
47603;SDS011;33326;51.116;6.900;2022-09-28T08:43:18;13.52;;;5.00;;
47603;SDS011;33326;51.116;6.900;2022-09-28T08:48:52;10.77;;;4.88;;
47603;SDS011;33326;51.116;6.900;2022-09-28T08:54:11;8.48;;;4.15;;
47603;SDS011;33326;51.116;6.900;2022-09-28T08:59:30;11.23;;;5.28;;
47603;SDS011;33326;51.116;6.900;2022-09-28T09:04:49;8.27;;;4.50;;
47603;SDS011;33326;51.116;6.900;2022-09-28T09:10:01;10.23;;;4.85;;
47603;SDS011;33326;51.116;6.900;2022-09-28T09:15:20;7.70;;;4.43;;
47603;SDS011;33326;51.116;6.900;2022-09-28T09:20:33;8.70;;;4.10;;
47603;SDS011;33326;51.116;6.900;2022-09-28T09:25:47;7.45;;;3.60;;
47603;SDS011;33326;51.116;6.900;2022-09-28T09:30:58;6.85;;;3.63;;
47603;SDS011;33326;51.116;6.900;2022-09-28T09:36:17;5.47;;;3.03;;
47603;SDS011;33326;51.116;6.900;2022-09-28T09:42:07;5.18;;;1.98;;
47603;SDS011;33326;51.116;6.900;2022-09-28T09:47:38;4.28;;;1.92;;
47603;SDS011;33326;51.116;6.900;2022-09-28T09:53:01;6.45;;;1.85;;
47603;SDS011;33326;51.116;6.900;2022-09-28T09:58:08;5.38;;;1.60;;
47603;SDS011;33326;51.116;6.900;2022-09-28T10:03:20;3.63;;;2.63;;
47603;SDS011;33326;51.116;6.900;2022-09-28T10:08:27;4.90;;;2.42;;
47603;SDS011;33326;51.116;6.900;2022-09-28T10:13:31;4.85;;;2.17;;
47603;SDS011;33326;51.116;6.900;2022-09-28T10:18:38;4.18;;;2.40;;
47603;SDS011;33326;51.116;6.900;2022-09-28T10:23:59;6.10;;;1.90;;
47603;SDS011;33326;51.116;6.900;2022-09-28T10:29:04;3.95;;;1.38;;
47603;SDS011;33326;51.116;6.900;2022-09-28T10:34:15;5.07;;;1.73;;
47603;SDS011;33326;51.116;6.900;2022-09-28T10:39:32;4.28;;;1.75;;
47603;SDS011;33326;51.116;6.900;2022-09-28T10:44:42;3.28;;;1.88;;
47603;SDS011;33326;51.116;6.900;2022-09-28T10:50:11;4.57;;;2.17;;
47603;SDS011;33326;51.116;6.900;2022-09-28T10:55:25;4.18;;;2.10;;
47603;SDS011;33326;51.116;6.900;2022-09-28T11:00:35;3.83;;;1.90;;
47603;SDS011;33326;51.116;6.900;2022-09-28T11:05:53;3.10;;;1.90;;
47603;SDS011;33326;51.116;6.900;2022-09-28T11:11:03;5.72;;;2.05;;
47603;SDS011;33326;51.116;6.900;2022-09-28T11:16:08;3.72;;;1.80;;
47603;SDS011;33326;51.116;6.900;2022-09-28T11:21:23;3.35;;;1.70;;
47603;SDS011;33326;51.116;6.900;2022-09-28T11:26:37;5.63;;;2.05;;
47603;SDS011;33326;51.116;6.900;2022-09-28T11:31:45;5.75;;;1.90;;
47603;SDS011;33326;51.116;6.900;2022-09-28T11:36:57;3.30;;;1.90;;
47603;SDS011;33326;51.116;6.900;2022-09-28T11:42:23;2.35;;;1.60;;
47603;SDS011;33326;51.116;6.900;2022-09-28T11:47:35;4.03;;;1.75;;
47603;SDS011;33326;51.116;6.900;2022-09-28T11:52:49;3.33;;;1.42;;
47603;SDS011;33326;51.116;6.900;2022-09-28T11:57:59;3.63;;;1.30;;
47603;SDS011;33326;51.116;6.900;2022-09-28T12:03:05;4.75;;;1.20;;
47603;SDS011;33326;51.116;6.900;2022-09-28T12:08:15;3.50;;;1.05;;
47603;SDS011;33326;51.116;6.900;2022-09-28T12:13:41;3.28;;;1.83;;
47603;SDS011;33326;51.116;6.900;2022-09-28T12:18:48;4.93;;;1.40;;
47603;SDS011;33326;51.116;6.900;2022-09-28T12:23:55;2.38;;;1.10;;
47603;SDS011;33326;51.116;6.900;2022-09-28T12:29:03;2.72;;;1.30;;
47603;SDS011;33326;51.116;6.900;2022-09-28T12:34:11;5.65;;;1.48;;
47603;SDS011;33326;51.116;6.900;2022-09-28T12:44:55;3.78;;;1.35;;
47603;SDS011;33326;51.116;6.900;2022-09-28T12:50:14;4.32;;;1.52;;
47603;SDS011;33326;51.116;6.900;2022-09-28T12:55:26;3.90;;;1.08;;
47603;SDS011;33326;51.116;6.900;2022-09-28T13:00:37;3.22;;;1.10;;
47603;SDS011;33326;51.116;6.900;2022-09-28T13:11:24;3.03;;;0.95;;
47603;SDS011;33326;51.116;6.900;2022-09-28T13:16:34;2.50;;;1.10;;
47603;SDS011;33326;51.116;6.900;2022-09-28T13:21:45;1.70;;;0.57;;
47603;SDS011;33326;51.116;6.900;2022-09-28T13:26:54;0.90;;;0.40;;
47603;SDS011;33326;51.116;6.900;2022-09-28T13:31:58;1.65;;;0.57;;
47603;SDS011;33326;51.116;6.900;2022-09-28T13:42:38;2.80;;;0.50;;
47603;SDS011;33326;51.116;6.900;2022-09-28T13:47:55;4.10;;;1.08;;
47603;SDS011;33326;51.116;6.900;2022-09-28T13:53:16;2.92;;;0.93;;
47603;SDS011;33326;51.116;6.900;2022-09-28T13:58:25;2.28;;;0.88;;
47603;SDS011;33326;51.116;6.900;2022-09-28T14:03:41;2.85;;;1.00;;
47603;SDS011;33326;51.116;6.900;2022-09-28T14:14:26;3.35;;;0.90;;
47603;SDS011;33326;51.116;6.900;2022-09-28T14:19:48;2.58;;;0.95;;
47603;SDS011;33326;51.116;6.900;2022-09-28T14:24:56;2.03;;;0.80;;
47603;SDS011;33326;51.116;6.900;2022-09-28T14:30:15;2.88;;;0.95;;
47603;SDS011;33326;51.116;6.900;2022-09-28T14:35:23;1.70;;;0.60;;
47603;SDS011;33326;51.116;6.900;2022-09-28T14:40:35;5.07;;;0.90;;
47603;SDS011;33326;51.116;6.900;2022-09-28T14:46:33;2.80;;;0.70;;
47603;SDS011;33326;51.116;6.900;2022-09-28T14:57:14;1.25;;;0.80;;
47603;SDS011;33326;51.116;6.900;2022-09-28T15:02:21;3.40;;;0.95;;
47603;SDS011;33326;51.116;6.900;2022-09-28T15:07:26;2.47;;;0.70;;
47603;SDS011;33326;51.116;6.900;2022-09-28T15:12:29;6.05;;;1.30;;
47603;SDS011;33326;51.116;6.900;2022-09-28T15:17:33;2.20;;;1.10;;
47603;SDS011;33326;51.116;6.900;2022-09-28T15:22:37;2.30;;;0.70;;
47603;SDS011;33326;51.116;6.900;2022-09-28T15:27:49;0.95;;;0.63;;
47603;SDS011;33326;51.116;6.900;2022-09-28T15:32:55;1.92;;;0.90;;
47603;SDS011;33326;51.116;6.900;2022-09-28T15:38:18;1.80;;;0.80;;
47603;SDS011;33326;51.116;6.900;2022-09-28T15:43:22;1.65;;;0.85;;
47603;SDS011;33326;51.116;6.900;2022-09-28T15:59:53;3.25;;;1.05;;
47603;SDS011;33326;51.116;6.900;2022-09-28T16:04:56;9.05;;;1.52;;
47603;SDS011;33326;51.116;6.900;2022-09-28T16:10:01;3.85;;;1.10;;
47603;SDS011;33326;51.116;6.900;2022-09-28T16:15:11;2.45;;;0.73;;
47603;SDS011;33326;51.116;6.900;2022-09-28T16:20:20;1.15;;;0.77;;
47603;SDS011;33326;51.116;6.900;2022-09-28T16:25:27;4.68;;;0.80;;
47603;SDS011;33326;51.116;6.900;2022-09-28T16:30:31;1.45;;;1.00;;
47603;SDS011;33326;51.116;6.900;2022-09-28T16:35:48;2.17;;;1.05;;
47603;SDS011;33326;51.116;6.900;2022-09-28T16:40:50;2.30;;;1.27;;
47603;SDS011;33326;51.116;6.900;2022-09-28T16:45:55;3.58;;;2.25;;
47603;SDS011;33326;51.116;6.900;2022-09-28T16:50:58;2.58;;;1.20;;
47603;SDS011;33326;51.116;6.900;2022-09-28T16:56:01;3.70;;;1.50;;
47603;SDS011;33326;51.116;6.900;2022-09-28T17:01:05;3.45;;;1.30;;
47603;SDS011;33326;51.116;6.900;2022-09-28T17:06:10;2.53;;;1.30;;
47603;SDS011;33326;51.116;6.900;2022-09-28T17:11:13;2.85;;;1.48;;
47603;SDS011;33326;51.116;6.900;2022-09-28T17:16:18;3.38;;;1.15;;
47603;SDS011;33326;51.116;6.900;2022-09-28T17:21:21;2.90;;;0.95;;
47603;SDS011;33326;51.116;6.900;2022-09-28T17:26:23;2.47;;;1.20;;
47603;SDS011;33326;51.116;6.900;2022-09-28T17:31:31;2.22;;;1.20;;
47603;SDS011;33326;51.116;6.900;2022-09-28T17:36:32;3.42;;;1.20;;
47603;SDS011;33326;51.116;6.900;2022-09-28T17:41:34;3.95;;;1.23;;
47603;SDS011;33326;51.116;6.900;2022-09-28T17:46:38;3.95;;;2.40;;
47603;SDS011;33326;51.116;6.900;2022-09-28T17:51:44;3.75;;;1.77;;
47603;SDS011;33326;51.116;6.900;2022-09-28T17:56:46;2.45;;;1.58;;
47603;SDS011;33326;51.116;6.900;2022-09-28T18:01:50;2.58;;;1.65;;
47603;SDS011;33326;51.116;6.900;2022-09-28T18:06:53;2.50;;;1.90;;
47603;SDS011;33326;51.116;6.900;2022-09-28T18:12:07;4.63;;;1.67;;
47603;SDS011;33326;51.116;6.900;2022-09-28T18:17:11;1.92;;;1.42;;
47603;SDS011;33326;51.116;6.900;2022-09-28T18:22:14;2.88;;;1.60;;
47603;SDS011;33326;51.116;6.900;2022-09-28T18:27:16;3.13;;;1.70;;
47603;SDS011;33326;51.116;6.900;2022-09-28T18:32:19;2.00;;;1.30;;
47603;SDS011;33326;51.116;6.900;2022-09-28T18:37:21;3.35;;;1.58;;
47603;SDS011;33326;51.116;6.900;2022-09-28T18:42:23;1.65;;;1.45;;
47603;SDS011;33326;51.116;6.900;2022-09-28T18:47:26;4.13;;;2.40;;
47603;SDS011;33326;51.116;6.900;2022-09-28T18:52:28;3.63;;;2.40;;
47603;SDS011;33326;51.116;6.900;2022-09-28T18:57:30;4.40;;;2.72;;
47603;SDS011;33326;51.116;6.900;2022-09-28T19:02:34;4.93;;;3.80;;
47603;SDS011;33326;51.116;6.900;2022-09-28T19:07:36;6.25;;;4.85;;
47603;SDS011;33326;51.116;6.900;2022-09-28T19:12:38;4.53;;;4.10;;
47603;SDS011;33326;51.116;6.900;2022-09-28T19:17:42;8.07;;;5.00;;
47603;SDS011;33326;51.116;6.900;2022-09-28T19:22:47;6.88;;;5.30;;
47603;SDS011;33326;51.116;6.900;2022-09-28T19:27:50;8.82;;;7.15;;
47603;SDS011;33326;51.116;6.900;2022-09-28T19:32:53;8.50;;;6.43;;
47603;SDS011;33326;51.116;6.900;2022-09-28T19:37:55;6.75;;;5.50;;
47603;SDS011;33326;51.116;6.900;2022-09-28T19:42:56;7.07;;;5.40;;
47603;SDS011;33326;51.116;6.900;2022-09-28T19:48:00;7.78;;;5.47;;
47603;SDS011;33326;51.116;6.900;2022-09-28T19:53:02;7.57;;;5.00;;
47603;SDS011;33326;51.116;6.900;2022-09-28T19:58:06;6.13;;;4.65;;
47603;SDS011;33326;51.116;6.900;2022-09-28T20:03:09;7.72;;;4.88;;
47603;SDS011;33326;51.116;6.900;2022-09-28T20:08:11;5.13;;;4.57;;
47603;SDS011;33326;51.116;6.900;2022-09-28T20:13:14;8.90;;;6.28;;
47603;SDS011;33326;51.116;6.900;2022-09-28T20:18:17;7.78;;;5.65;;
47603;SDS011;33326;51.116;6.900;2022-09-28T20:23:19;18.02;;;10.52;;
47603;SDS011;33326;51.116;6.900;2022-09-28T20:28:21;7.40;;;5.30;;
47603;SDS011;33326;51.116;6.900;2022-09-28T20:33:25;9.30;;;5.53;;
47603;SDS011;33326;51.116;6.900;2022-09-28T20:38:27;10.25;;;6.43;;
47603;SDS011;33326;51.116;6.900;2022-09-28T20:43:29;20.60;;;9.35;;
47603;SDS011;33326;51.116;6.900;2022-09-28T20:48:32;7.47;;;5.80;;
47603;SDS011;33326;51.116;6.900;2022-09-28T20:53:34;14.80;;;9.45;;
47603;SDS011;33326;51.116;6.900;2022-09-28T20:58:37;13.70;;;8.63;;
47603;SDS011;33326;51.116;6.900;2022-09-28T21:03:43;8.07;;;6.43;;
47603;SDS011;33326;51.116;6.900;2022-09-28T21:08:47;13.55;;;6.70;;
47603;SDS011;33326;51.116;6.900;2022-09-28T21:13:50;8.90;;;6.95;;
47603;SDS011;33326;51.116;6.900;2022-09-28T21:18:54;7.28;;;6.28;;
47603;SDS011;33326;51.116;6.900;2022-09-28T21:23:57;12.05;;;6.50;;
47603;SDS011;33326;51.116;6.900;2022-09-28T21:28:59;9.15;;;6.43;;
47603;SDS011;33326;51.116;6.900;2022-09-28T21:34:04;10.07;;;7.90;;
47603;SDS011;33326;51.116;6.900;2022-09-28T21:39:05;15.55;;;11.50;;
47603;SDS011;33326;51.116;6.900;2022-09-28T21:44:07;10.25;;;8.10;;
47603;SDS011;33326;51.116;6.900;2022-09-28T21:49:11;9.70;;;6.15;;
47603;SDS011;33326;51.116;6.900;2022-09-28T21:54:13;12.73;;;6.57;;
47603;SDS011;33326;51.116;6.900;2022-09-28T21:59:15;9.73;;;6.28;;
47603;SDS011;33326;51.116;6.900;2022-09-28T22:04:18;8.10;;;6.10;;
47603;SDS011;33326;51.116;6.900;2022-09-28T22:21:07;9.77;;;6.07;;
47603;SDS011;33326;51.116;6.900;2022-09-28T22:26:12;9.60;;;6.50;;
47603;SDS011;33326;51.116;6.900;2022-09-28T22:31:19;10.45;;;6.65;;
47603;SDS011;33326;51.116;6.900;2022-09-28T22:36:23;9.45;;;6.72;;
47603;SDS011;33326;51.116;6.900;2022-09-28T22:41:26;10.88;;;6.80;;
47603;SDS011;33326;51.116;6.900;2022-09-28T22:46:29;9.55;;;6.47;;
47603;SDS011;33326;51.116;6.900;2022-09-28T22:51:33;9.70;;;6.82;;
47603;SDS011;33326;51.116;6.900;2022-09-28T22:56:35;9.10;;;6.43;;
47603;SDS011;33326;51.116;6.900;2022-09-28T23:01:37;7.95;;;6.05;;
47603;SDS011;33326;51.116;6.900;2022-09-28T23:06:40;10.60;;;6.80;;
47603;SDS011;33326;51.116;6.900;2022-09-28T23:11:42;9.00;;;6.95;;
47603;SDS011;33326;51.116;6.900;2022-09-28T23:16:44;10.30;;;6.47;;
47603;SDS011;33326;51.116;6.900;2022-09-28T23:21:47;10.00;;;6.30;;
47603;SDS011;33326;51.116;6.900;2022-09-28T23:26:49;10.52;;;6.93;;
47603;SDS011;33326;51.116;6.900;2022-09-28T23:31:51;10.82;;;7.22;;
47603;SDS011;33326;51.116;6.900;2022-09-28T23:36:54;11.27;;;6.38;;
47603;SDS011;33326;51.116;6.900;2022-09-28T23:41:56;12.45;;;6.93;;
47603;SDS011;33326;51.116;6.900;2022-09-28T23:46:59;10.32;;;7.05;;
47603;SDS011;33326;51.116;6.900;2022-09-28T23:52:02;7.88;;;6.57;;
47603;SDS011;33326;51.116;6.900;2022-09-28T23:57:04;11.40;;;7.40;;
